createdAt,value
2022-11-04T00:00:57.001Z,19.70
2022-11-04T00:06:06.476Z,23.13
2022-11-04T00:11:26.221Z,21.97
2022-11-04T00:16:43.432Z,21.87
2022-11-04T00:22:03.228Z,19.43
2022-11-04T00:27:20.574Z,21.33
2022-11-04T00:32:37.873Z,22.30
2022-11-04T00:37:46.835Z,24.50
2022-11-04T00:42:51.662Z,24.63
2022-11-04T00:47:56.400Z,20.47
2022-11-04T00:53:05.284Z,29.10
2022-11-04T00:58:10.706Z,28.40
2022-11-04T01:03:15.822Z,26.93
2022-11-04T01:08:23.193Z,28.40
2022-11-04T01:13:28.142Z,28.13
2022-11-04T01:18:32.996Z,29.10
2022-11-04T01:23:40.767Z,33.40
2022-11-04T01:28:46.698Z,29.63
2022-11-04T01:33:51.715Z,28.50
2022-11-04T01:39:00.467Z,33.43
2022-11-04T01:44:06.759Z,30.20
2022-11-04T01:49:29.094Z,38.00
2022-11-04T01:54:38.115Z,33.47
2022-11-04T01:59:44.469Z,32.77
2022-11-04T02:04:49.772Z,31.50
2022-11-04T02:09:58.145Z,34.93
2022-11-04T02:15:02.916Z,34.30
2022-11-04T02:20:23.415Z,30.50
2022-11-04T02:25:49.861Z,30.60
2022-11-04T02:31:04.379Z,33.17
2022-11-04T02:36:19.703Z,34.07
2022-11-04T02:41:38.044Z,35.10
2022-11-04T02:46:52.273Z,35.93
2022-11-04T02:52:04.744Z,36.63
2022-11-04T02:57:15.930Z,32.90
2022-11-04T03:02:30.373Z,33.57
2022-11-04T03:07:40.394Z,30.47
2022-11-04T03:12:51.163Z,32.77
2022-11-04T03:18:09.065Z,32.10
2022-11-04T03:23:14.938Z,34.83
2022-11-04T03:28:30.355Z,34.83
2022-11-04T03:33:44.209Z,33.57
2022-11-04T03:38:49.441Z,36.13
2022-11-04T03:43:54.588Z,36.37
2022-11-04T03:49:02.916Z,32.83
2022-11-04T03:54:09.488Z,34.93
2022-11-04T03:59:34.146Z,34.13
2022-11-04T04:04:47.217Z,32.50
2022-11-04T04:09:58.032Z,34.17
2022-11-04T04:15:09.672Z,35.47
2022-11-04T04:20:23.581Z,31.87
2022-11-04T04:25:44.309Z,36.23
2022-11-04T04:30:50.905Z,39.83
2022-11-04T04:36:00.353Z,40.70
2022-11-04T04:41:25.282Z,36.77
2022-11-04T04:46:34.322Z,36.33
2022-11-04T04:51:48.890Z,34.67
2022-11-04T04:56:54.132Z,33.40
2022-11-04T05:02:01.158Z,32.43
2022-11-04T05:07:10.191Z,36.20
2022-11-04T05:12:15.668Z,38.57
2022-11-04T05:17:20.671Z,42.70
2022-11-04T05:22:30.370Z,46.33
2022-11-04T05:27:36.510Z,43.67
2022-11-04T05:32:42.531Z,43.70
2022-11-04T05:37:49.997Z,40.33
2022-11-04T05:42:54.849Z,43.17
2022-11-04T05:48:04.604Z,41.70
2022-11-04T05:53:12.626Z,41.77
2022-11-04T05:58:18.010Z,40.33
2022-11-04T06:03:22.877Z,45.10
2022-11-04T06:08:31.621Z,47.37
2022-11-04T06:13:37.043Z,44.67
2022-11-04T06:18:42.857Z,45.10
2022-11-04T06:23:50.778Z,48.13
2022-11-04T06:28:55.698Z,42.90
2022-11-04T06:34:00.672Z,45.30
2022-11-04T06:39:09.618Z,43.43
2022-11-04T06:44:16.744Z,40.57
2022-11-04T06:49:25.434Z,46.73
2022-11-04T06:54:32.845Z,40.20
2022-11-04T06:59:37.904Z,38.63
2022-11-04T07:04:42.724Z,38.97
2022-11-04T07:09:52.668Z,39.07
2022-11-04T07:14:57.886Z,35.00
2022-11-04T07:20:07.098Z,35.80
2022-11-04T07:25:19.240Z,29.70
2022-11-04T07:30:24.159Z,27.50
2022-11-04T07:35:30.207Z,28.37
2022-11-04T07:40:39.565Z,25.93
2022-11-04T07:45:44.729Z,26.83
2022-11-04T07:50:49.564Z,22.27
2022-11-04T07:55:57.002Z,21.83
2022-11-04T08:01:02.720Z,22.63
2022-11-04T08:06:10.113Z,22.30
2022-11-04T08:11:21.464Z,19.60
2022-11-04T08:16:33.956Z,20.13
2022-11-04T08:21:39.375Z,18.47
2022-11-04T08:26:47.298Z,19.50
2022-11-04T08:31:52.388Z,24.27
2022-11-04T08:37:00.537Z,19.13
2022-11-04T08:42:08.376Z,15.40
2022-11-04T08:47:15.717Z,18.47
2022-11-04T08:52:24.527Z,12.73
2022-11-04T08:57:32.208Z,11.50
2022-11-04T09:02:37.110Z,14.20
2022-11-04T09:07:42.199Z,8.90
2022-11-04T09:12:51.079Z,9.10
2022-11-04T09:17:57.058Z,10.97
2022-11-04T09:23:02.441Z,6.60
2022-11-04T09:28:10.256Z,6.47
2022-11-04T09:33:15.325Z,9.00
2022-11-04T09:38:20.627Z,10.63
2022-11-04T09:43:49.766Z,6.13
2022-11-04T09:49:00.065Z,8.43
2022-11-04T09:54:11.173Z,6.33
2022-11-04T09:59:24.483Z,7.17
2022-11-04T10:04:41.424Z,8.60
2022-11-04T10:10:01.276Z,9.60
2022-11-04T10:15:36.935Z,9.40
2022-11-04T10:20:52.578Z,8.77
2022-11-04T10:26:03.703Z,11.03
2022-11-04T10:31:17.078Z,10.77
2022-11-04T10:36:22.645Z,9.93
2022-11-04T10:41:33.178Z,8.40
2022-11-04T10:46:56.323Z,9.20
2022-11-04T10:52:01.320Z,9.37
2022-11-04T10:57:06.264Z,11.27
2022-11-04T11:02:13.711Z,8.97
2022-11-04T11:07:23.676Z,10.73
2022-11-04T11:12:50.604Z,8.07
2022-11-04T11:18:03.111Z,9.27
2022-11-04T11:23:37.750Z,12.73
2022-11-04T11:28:54.425Z,12.00
2022-11-04T11:34:08.383Z,12.00
2022-11-04T11:39:22.049Z,7.43
2022-11-04T11:44:33.041Z,8.13
2022-11-04T11:49:40.605Z,9.40
2022-11-04T11:54:47.757Z,6.47
2022-11-04T12:11:04.234Z,7.97
2022-11-04T12:16:28.781Z,7.80
2022-11-04T12:21:42.092Z,8.70
2022-11-04T12:26:56.268Z,8.33
2022-11-04T12:32:11.623Z,5.10
2022-11-04T12:37:28.283Z,9.43
2022-11-04T12:42:43.237Z,6.43
2022-11-04T12:47:49.821Z,6.77
2022-11-04T12:53:19.983Z,6.37
2022-11-04T12:58:36.924Z,7.60
2022-11-04T13:03:50.483Z,9.03
2022-11-04T13:09:03.520Z,7.40
2022-11-04T13:14:13.671Z,7.10
2022-11-04T13:19:29.231Z,5.93
2022-11-04T13:24:40.994Z,6.77
2022-11-04T13:29:46.749Z,8.33
2022-11-04T13:35:00.521Z,10.03
2022-11-04T13:40:18.269Z,8.53
2022-11-04T13:45:24.947Z,9.67
2022-11-04T13:50:38.419Z,8.30
2022-11-04T13:55:56.211Z,7.27
2022-11-04T14:01:13.909Z,9.13
2022-11-04T14:06:19.225Z,7.83
2022-11-04T14:11:26.958Z,8.33
2022-11-04T14:16:47.539Z,10.27
2022-11-04T14:22:09.084Z,8.87
2022-11-04T14:27:33.628Z,21.77
2022-11-04T14:32:43.801Z,9.77
2022-11-04T14:37:56.216Z,7.93
2022-11-04T14:43:21.349Z,8.07
2022-11-04T14:48:26.565Z,9.10
2022-11-04T14:53:36.418Z,10.30
2022-11-04T14:58:57.171Z,9.27
2022-11-04T15:04:13.038Z,9.93
2022-11-04T15:09:33.274Z,12.73
2022-11-04T15:14:41.968Z,9.67
2022-11-04T15:19:52.010Z,8.60
2022-11-04T15:24:57.239Z,14.63
2022-11-04T15:30:08.261Z,10.63
2022-11-04T15:35:16.281Z,10.73
2022-11-04T15:40:21.788Z,12.77
2022-11-04T15:45:38.213Z,13.07
2022-11-04T15:50:43.381Z,11.23
2022-11-04T15:55:50.878Z,11.50
2022-11-04T16:00:59.766Z,14.47
2022-11-04T16:06:07.505Z,7.83
2022-11-04T16:11:16.842Z,8.93
2022-11-04T16:16:29.531Z,7.00
2022-11-04T16:21:38.919Z,10.90
2022-11-04T16:26:48.042Z,9.90
2022-11-04T16:32:17.562Z,10.83
2022-11-04T16:37:22.577Z,13.13
2022-11-04T16:42:27.606Z,10.13
2022-11-04T16:47:41.519Z,11.30
2022-11-04T16:52:46.855Z,13.40
2022-11-04T16:58:01.339Z,11.40
2022-11-04T17:03:22.182Z,11.43
2022-11-04T17:08:28.891Z,13.73
2022-11-04T17:13:36.513Z,14.07
2022-11-04T17:18:46.119Z,11.07
2022-11-04T17:23:52.059Z,11.50
2022-11-04T17:28:57.307Z,14.23
2022-11-04T17:34:05.904Z,15.13
2022-11-04T17:39:11.124Z,14.33
2022-11-04T17:44:15.972Z,13.03
2022-11-04T17:49:25.514Z,12.37
2022-11-04T17:54:32.859Z,13.97
2022-11-04T17:59:38.411Z,14.00
2022-11-04T18:04:48.267Z,15.63
2022-11-04T18:09:53.313Z,14.73
2022-11-04T18:15:00.295Z,16.07
2022-11-04T18:20:13.663Z,15.63
2022-11-04T18:25:19.757Z,16.00
2022-11-04T18:30:25.285Z,15.23
2022-11-04T18:35:32.589Z,13.97
2022-11-04T18:40:37.771Z,14.20
2022-11-04T18:45:43.934Z,12.63
2022-11-04T18:50:54.113Z,15.60
2022-11-04T18:56:04.913Z,15.60
2022-11-04T19:01:16.087Z,13.77
2022-11-04T19:06:26.030Z,12.70
2022-11-04T19:11:33.450Z,12.20
2022-11-04T19:16:39.020Z,16.40
2022-11-04T19:21:47.411Z,13.03
2022-11-04T19:26:52.270Z,16.53
2022-11-04T19:31:57.082Z,17.20
2022-11-04T19:37:04.630Z,15.50
2022-11-04T19:42:22.578Z,17.83
2022-11-04T19:47:27.734Z,18.80
2022-11-04T19:52:36.596Z,18.80
2022-11-04T19:57:42.563Z,17.60
2022-11-04T20:02:47.789Z,17.03
2022-11-04T20:07:55.794Z,16.97
2022-11-04T20:13:13.137Z,21.87
2022-11-04T20:18:18.231Z,19.37
2022-11-04T20:23:26.837Z,19.90
2022-11-04T20:28:31.745Z,20.20
2022-11-04T20:33:36.767Z,16.93
2022-11-04T20:38:44.658Z,22.13
2022-11-04T20:43:51.222Z,20.23
2022-11-04T20:48:56.894Z,19.70
2022-11-04T20:54:06.889Z,20.57
2022-11-04T20:59:12.434Z,21.83
2022-11-04T21:04:19.120Z,21.57
2022-11-04T21:09:26.688Z,21.17
2022-11-04T21:14:35.165Z,17.63
2022-11-04T21:19:46.726Z,20.77
2022-11-04T21:24:54.118Z,19.70
2022-11-04T21:29:58.881Z,21.63
2022-11-04T21:35:03.760Z,19.60
2022-11-04T21:40:13.131Z,20.80
2022-11-04T21:45:17.964Z,16.77
2022-11-04T21:50:22.774Z,19.47
2022-11-04T21:55:30.350Z,19.80
2022-11-04T22:00:35.440Z,19.40
2022-11-04T22:05:41.540Z,17.47
2022-11-04T22:10:50.207Z,18.43
2022-11-04T22:16:02.142Z,18.23
2022-11-04T22:21:11.303Z,19.63
2022-11-04T22:26:21.002Z,19.90
2022-11-04T22:31:27.934Z,18.47
2022-11-04T22:36:36.198Z,18.07
2022-11-04T22:41:43.854Z,15.87
2022-11-04T22:46:48.631Z,22.47
2022-11-04T22:51:53.342Z,20.93
2022-11-04T22:57:00.795Z,18.77
2022-11-04T23:02:05.656Z,19.80
2022-11-04T23:07:10.579Z,17.30
2022-11-04T23:12:30.384Z,17.63
2022-11-04T23:18:03.159Z,19.40
2022-11-04T23:23:20.352Z,17.03
2022-11-04T23:28:40.164Z,17.40
2022-11-04T23:33:57.427Z,19.50
2022-11-04T23:39:02.134Z,18.30
2022-11-04T23:44:29.918Z,19.47
2022-11-04T23:49:47.163Z,17.13
2022-11-04T23:55:04.488Z,15.90
